»·PEaware :: WAT308 KGEG-KHQM

WAT308 :: KGEG-KHQM

FLIGHT INFORMATION

Flight Status: Arrived
Operator:
Walker Air Transport
More flights by this operator :: More flights under this callsign
Pilot: Travis S. (24866)
Aircraft: BEECH AIRCRAFT SUPER KING AIR 350
(B350)
More flights by this aircraft type
Origin: KGEG Spokane Intl
United States
Destination: KHQM Bowerman
United States
More flights between these airports :: More routes between these airports
Route: +
File this flight plan on PilotEdge
Remarks:
Altitude:
(Current/Filed)
14,500ft
Speed:
(Current/Filed)
250kts
Departed: 28-Jul-20 11:24 AM
Arrived: 28-Jul-20 12:28 PM
Distance/Time
Traveled:
263nm/1:04
Distance/Time
To Go:
Arrived

Flight Plot

Page will automatically refresh every two minutes.

Flight plan parsing failed; only flown route is shown


Map Options




Map Legend


Flown Route
Filed Route
Departure Airport
Arrival Airport
Navaid (VOR, NDB)
Fix

Horizontal Profiles

Position Reports

Time Latitude Longitude Heading Altitude Ground
Speed
28-Jul-20 11:07 47.624550 -117.522682 134 2351ft 0kts
28-Jul-20 11:08 47.624550 -117.522682 134 2351ft 0kts
28-Jul-20 11:09 47.624550 -117.522682 134 2351ft 0kts
28-Jul-20 11:10 47.624550 -117.522682 134 2351ft 0kts
28-Jul-20 11:11 47.624550 -117.522682 134 2351ft 0kts
28-Jul-20 11:12 47.624550 -117.522682 134 2351ft 0kts
28-Jul-20 11:13 47.624550 -117.522682 134 2351ft 0kts
28-Jul-20 11:14 47.624509 -117.522460 143 2351ft 5kts
28-Jul-20 11:15 47.624367 -117.522704 264 2351ft 0kts
28-Jul-20 11:16 47.624367 -117.522704 264 2351ft 0kts
28-Jul-20 11:17 47.624626 -117.524105 339 2351ft 8kts
28-Jul-20 11:18 47.626298 -117.522181 45 2343ft 8kts
28-Jul-20 11:19 47.628298 -117.519171 45 2332ft 6kts
28-Jul-20 11:20 47.630048 -117.516934 348 2323ft 6kts
28-Jul-20 11:21 47.630378 -117.517258 315 2322ft 0kts
28-Jul-20 11:22 47.630830 -117.518839 224 2323ft 12kts
28-Jul-20 11:23 47.607801 -117.548161 195 3095ft 165kts
28-Jul-20 11:24 47.559302 -117.562476 193 4912ft 184kts
28-Jul-20 11:25 47.518726 -117.596699 263 6774ft 188kts
28-Jul-20 11:26 47.517479 -117.674594 264 8595ft 189kts
28-Jul-20 11:27 47.512344 -117.751296 262 10387ft 185kts
28-Jul-20 11:28 47.506844 -117.826294 261 12171ft 181kts
28-Jul-20 11:29 47.501338 -117.900570 262 13865ft 180kts
28-Jul-20 11:30 47.495581 -117.977751 262 14523ft 213kts
28-Jul-20 11:31 47.488488 -118.074147 262 14513ft 253kts
28-Jul-20 11:32 47.480408 -118.182244 262 14503ft 272kts
28-Jul-20 11:33 47.471759 -118.296322 262 14499ft 280kts
28-Jul-20 11:34 47.462932 -118.411821 262 14498ft 282kts
28-Jul-20 11:35 47.453790 -118.527769 262 14496ft 284kts
28-Jul-20 11:36 47.444453 -118.644052 262 14496ft 284kts
28-Jul-20 11:37 47.435077 -118.759467 261 14500ft 285kts
28-Jul-20 11:38 47.425774 -118.872575 261 14480ft 285kts
28-Jul-20 11:39 47.416028 -118.989216 261 14438ft 286kts
28-Jul-20 11:40 47.406091 -119.106699 261 14415ft 286kts
28-Jul-20 11:41 47.396122 -119.223299 261 14416ft 286kts
28-Jul-20 11:42 47.385964 -119.340596 261 14415ft 286kts
28-Jul-20 11:43 47.368073 -119.453825 242 14415ft 283kts
28-Jul-20 11:44 47.333299 -119.558662 244 14415ft 283kts
28-Jul-20 11:45 47.298369 -119.663007 242 14416ft 283kts
28-Jul-20 11:46 47.263033 -119.767333 242 14418ft 284kts
28-Jul-20 11:47 47.227545 -119.871672 242 14416ft 284kts
28-Jul-20 11:48 47.191690 -119.976520 242 14415ft 284kts
28-Jul-20 11:49 47.156089 -120.080408 242 14426ft 284kts
28-Jul-20 11:50 47.120424 -120.184029 242 14441ft 284kts
28-Jul-20 11:51 47.084664 -120.287499 242 14453ft 284kts
28-Jul-20 11:52 47.049624 -120.388462 243 14449ft 285kts
28-Jul-20 11:53 47.023797 -120.497136 265 14455ft 287kts
28-Jul-20 11:54 47.022259 -120.614638 267 14448ft 287kts
28-Jul-20 11:55 47.020698 -120.730279 266 14454ft 287kts
28-Jul-20 11:56 47.018613 -120.848201 266 14454ft 287kts
28-Jul-20 11:57 47.016364 -120.966846 266 14452ft 288kts
28-Jul-20 11:58 47.014023 -121.083546 266 14529ft 286kts
28-Jul-20 11:59 47.011582 -121.200538 266 14615ft 285kts
28-Jul-20 12:00 47.009048 -121.316236 266 14626ft 287kts
28-Jul-20 12:01 47.006384 -121.434047 266 14531ft 289kts
28-Jul-20 12:02 47.003542 -121.551335 266 14534ft 289kts
28-Jul-20 12:03 47.000631 -121.666099 266 14535ft 288kts
28-Jul-20 12:04 46.997566 -121.784174 266 14534ft 288kts
28-Jul-20 12:05 46.994382 -121.902159 266 14534ft 288kts
28-Jul-20 12:06 46.991093 -122.018625 266 14511ft 289kts
28-Jul-20 12:07 46.987790 -122.135462 266 13177ft 283kts
28-Jul-20 12:08 46.984407 -122.247588 266 11647ft 269kts
28-Jul-20 12:09 46.980872 -122.356981 266 10114ft 266kts
28-Jul-20 12:10 46.977356 -122.466135 266 8596ft 266kts
28-Jul-20 12:11 46.973793 -122.574440 266 7088ft 265kts
28-Jul-20 12:12 46.970164 -122.679612 266 6460ft 254kts
28-Jul-20 12:13 46.969724 -122.783230 269 6461ft 251kts
28-Jul-20 12:14 46.969292 -122.885718 268 6465ft 255kts
28-Jul-20 12:15 46.968475 -122.991446 268 6462ft 261kts
28-Jul-20 12:16 46.967503 -123.098761 268 6462ft 263kts
28-Jul-20 12:17 46.966332 -123.206499 268 6462ft 263kts
28-Jul-20 12:18 46.964847 -123.314469 268 6459ft 264kts
28-Jul-20 12:19 46.966749 -123.421186 289 5137ft 258kts
28-Jul-20 12:20 47.005307 -123.507807 306 3638ft 249kts
28-Jul-20 12:21 47.011990 -123.598449 261 2228ft 206kts
28-Jul-20 12:22 47.003256 -123.673764 260 1994ft 187kts
28-Jul-20 12:23 46.995685 -123.747958 261 1620ft 168kts
28-Jul-20 12:25 46.985773 -123.812148 258 1222ft 176kts
28-Jul-20 12:26 46.978661 -123.874479 261 605ft 148kts
28-Jul-20 12:27 46.972462 -123.925543 261 54ft 113kts
28-Jul-20 12:28 46.971563 -123.939983 354 20ft 0kts
28-Jul-20 12:29 46.971804 -123.939864 53 19ft 5kts
28-Jul-20 12:30 46.972234 -123.936531 79 19ft 8kts
28-Jul-20 12:31 46.972560 -123.933938 81 19ft 5kts
28-Jul-20 12:32 46.973019 -123.931220 21 19ft 4kts
28-Jul-20 12:33 46.973427 -123.930417 164 18ft 0kts
28-Jul-20 12:34 46.973423 -123.930415 164 18ft 0kts
28-Jul-20 12:35 46.973423 -123.930415 164 18ft 0kts
28-Jul-20 12:36 46.973423 -123.930415 164 18ft 0kts
28-Jul-20 12:37 46.973423 -123.930415 164 18ft 0kts
28-Jul-20 12:37 46.973423 -123.930415 164 18ft 0kts
28-Jul-20 12:39 46.973423 -123.930415 164 18ft 0kts
28-Jul-20 12:40 46.973423 -123.930415 164 18ft 0kts
28-Jul-20 12:40 46.973423 -123.930415 164 18ft 0kts
28-Jul-20 12:42 46.973423 -123.930415 164 18ft 0kts

Navigation Log

Ident Type
Flight plan parsing failed, navigation log unavailable